Airfield :







YOU CAN JOIN US ON...

 
LOGIN :

Register | Disclaimer

   EN    FR    IT 

 









Legend :    VFR   Marginal VFR   IFR   Intensive IFR   Very Intensive IFR
Visi :
Ceiling :
>= 8 km
>= 3000ft
5 to 8 km
1000 to 3000 ft
1500m to 5 km
500 to 1000 ft
800 to 1500m
200 to 500 ft
< 800m
< 200 ft
Symbols :   Thunderstorms  Fog  Heavy snow  Heavy precipitations  Wind > 20 kt






- Airport Elevation : 496 ft
- IATA code : YQX


CYQX - Gander

CURRENT METAR :
  • 162100Z 24021G31KT 20SM FEW025 BKN035 M04/M09 A2946 RMK SC1SC6 SLP983

EXPIRED METARs :
  • 162000Z 23019G26KT 20SM FEW025 FEW040 M04/M09 A2946 RMK CU1SC1 SLP983
  • 161900Z 24019G25KT 20SM FEW025 SCT040 M03/M10 A2946 RMK CU2SC1 SHS DIST NE-SE SLP984

TAF TAF CYQX
Valid from the 16 at 18:00 until the 17 at 18:00 UTC


161738Z 1618/1718 27020G40KT P6SM BKN030
TEMPO 1618/1620 4SM -SHSNGS BKN010
FM162000 27020G40KT P6SM BKN030
TEMPO 1620/1706 SCT030
FM170600 28020G35KT P6SM FEW030
FM171200 28020G35KT P6SM BKN030 RMK NXT FCST BY 170000Z



MET'MAP, your aeronautical weather chart ! - Copyright ORBIFLY December 2007 - Disclaimer

ORBIFLY MET'MAP TEAM :

Programming & Development : Alexandra Zaïnal
Concept & Development : Baudouin d'Aumeries
Co-Development & Prog : Marc-Olivier Méhu
Technical & hardware support : Manuel Goepfert

Contact : metmap@orbifly.com




SOURCES & CREDITS :

   NOAA